sensor_id;sensor_type;location;lat;lon;timestamp;P1;durP1;ratioP1;P2;durP2;ratioP2
2848;SDS011;59355;52.416;13.412;2023-04-25T00:00:16;4.43;;;3.43;;
2848;SDS011;59355;52.416;13.412;2023-04-25T00:02:41;4.60;;;4.00;;
2848;SDS011;59355;52.416;13.412;2023-04-25T00:05:07;3.70;;;3.40;;
2848;SDS011;59355;52.416;13.412;2023-04-25T00:07:33;5.57;;;3.57;;
2848;SDS011;59355;52.416;13.412;2023-04-25T00:09:59;3.60;;;3.10;;
2848;SDS011;59355;52.416;13.412;2023-04-25T00:12:24;3.63;;;3.33;;
2848;SDS011;59355;52.416;13.412;2023-04-25T00:14:50;5.53;;;3.00;;
2848;SDS011;59355;52.416;13.412;2023-04-25T00:17:16;6.90;;;4.23;;
2848;SDS011;59355;52.416;13.412;2023-04-25T00:19:42;4.70;;;3.37;;
2848;SDS011;59355;52.416;13.412;2023-04-25T00:22:09;3.90;;;3.30;;
2848;SDS011;59355;52.416;13.412;2023-04-25T00:24:34;5.83;;;3.50;;
2848;SDS011;59355;52.416;13.412;2023-04-25T00:27:00;7.30;;;3.70;;
2848;SDS011;59355;52.416;13.412;2023-04-25T00:29:25;4.70;;;3.53;;
2848;SDS011;59355;52.416;13.412;2023-04-25T00:31:51;4.73;;;3.60;;
2848;SDS011;59355;52.416;13.412;2023-04-25T00:34:16;4.67;;;3.50;;
2848;SDS011;59355;52.416;13.412;2023-04-25T00:36:41;4.90;;;3.43;;
2848;SDS011;59355;52.416;13.412;2023-04-25T00:39:07;5.13;;;3.70;;
2848;SDS011;59355;52.416;13.412;2023-04-25T00:41:32;8.20;;;4.20;;
2848;SDS011;59355;52.416;13.412;2023-04-25T00:43:57;8.60;;;4.93;;
2848;SDS011;59355;52.416;13.412;2023-04-25T00:46:24;4.77;;;3.70;;
2848;SDS011;59355;52.416;13.412;2023-04-25T00:48:49;6.53;;;4.07;;
2848;SDS011;59355;52.416;13.412;2023-04-25T00:51:16;7.03;;;4.10;;
2848;SDS011;59355;52.416;13.412;2023-04-25T00:53:43;4.47;;;3.50;;
2848;SDS011;59355;52.416;13.412;2023-04-25T00:56:08;6.40;;;3.83;;
2848;SDS011;59355;52.416;13.412;2023-04-25T00:58:33;9.73;;;3.70;;
2848;SDS011;59355;52.416;13.412;2023-04-25T01:00:59;7.07;;;4.10;;
2848;SDS011;59355;52.416;13.412;2023-04-25T01:03:25;6.83;;;3.90;;
2848;SDS011;59355;52.416;13.412;2023-04-25T01:05:53;6.97;;;4.80;;
2848;SDS011;59355;52.416;13.412;2023-04-25T01:08:18;5.07;;;4.33;;
2848;SDS011;59355;52.416;13.412;2023-04-25T01:10:46;6.83;;;4.23;;
2848;SDS011;59355;52.416;13.412;2023-04-25T01:13:12;6.70;;;4.50;;
2848;SDS011;59355;52.416;13.412;2023-04-25T01:15:37;11.07;;;5.83;;
2848;SDS011;59355;52.416;13.412;2023-04-25T01:18:05;7.00;;;4.80;;
2848;SDS011;59355;52.416;13.412;2023-04-25T01:20:32;10.90;;;4.07;;
2848;SDS011;59355;52.416;13.412;2023-04-25T01:22:58;10.03;;;4.30;;
2848;SDS011;59355;52.416;13.412;2023-04-25T01:25:23;7.90;;;4.40;;
2848;SDS011;59355;52.416;13.412;2023-04-25T01:27:49;7.50;;;4.43;;
2848;SDS011;59355;52.416;13.412;2023-04-25T01:30:14;5.17;;;4.10;;
2848;SDS011;59355;52.416;13.412;2023-04-25T01:32:40;6.43;;;4.77;;
2848;SDS011;59355;52.416;13.412;2023-04-25T01:35:07;7.67;;;4.20;;
2848;SDS011;59355;52.416;13.412;2023-04-25T01:37:35;5.27;;;4.30;;
2848;SDS011;59355;52.416;13.412;2023-04-25T01:40:04;6.43;;;4.17;;
2848;SDS011;59355;52.416;13.412;2023-04-25T01:42:30;4.60;;;4.13;;
2848;SDS011;59355;52.416;13.412;2023-04-25T01:44:56;4.47;;;4.07;;
2848;SDS011;59355;52.416;13.412;2023-04-25T01:47:22;5.00;;;3.63;;
2848;SDS011;59355;52.416;13.412;2023-04-25T01:49:47;8.43;;;6.33;;
2848;SDS011;59355;52.416;13.412;2023-04-25T01:52:12;6.63;;;4.57;;
2848;SDS011;59355;52.416;13.412;2023-04-25T01:54:38;6.00;;;4.17;;
2848;SDS011;59355;52.416;13.412;2023-04-25T01:57:03;5.87;;;4.40;;
2848;SDS011;59355;52.416;13.412;2023-04-25T01:59:28;9.37;;;4.20;;
2848;SDS011;59355;52.416;13.412;2023-04-25T02:01:54;7.27;;;4.57;;
2848;SDS011;59355;52.416;13.412;2023-04-25T02:04:19;7.07;;;4.80;;
2848;SDS011;59355;52.416;13.412;2023-04-25T02:06:44;7.73;;;4.63;;
2848;SDS011;59355;52.416;13.412;2023-04-25T02:09:09;8.63;;;4.37;;
2848;SDS011;59355;52.416;13.412;2023-04-25T02:11:35;9.10;;;4.70;;
2848;SDS011;59355;52.416;13.412;2023-04-25T02:14:00;5.13;;;4.53;;
2848;SDS011;59355;52.416;13.412;2023-04-25T02:16:25;6.83;;;4.97;;
2848;SDS011;59355;52.416;13.412;2023-04-25T02:18:51;6.47;;;4.43;;
2848;SDS011;59355;52.416;13.412;2023-04-25T02:21:17;12.00;;;4.83;;
2848;SDS011;59355;52.416;13.412;2023-04-25T02:23:43;6.37;;;4.10;;
2848;SDS011;59355;52.416;13.412;2023-04-25T02:26:10;5.60;;;5.03;;
2848;SDS011;59355;52.416;13.412;2023-04-25T02:28:38;7.57;;;5.30;;
2848;SDS011;59355;52.416;13.412;2023-04-25T02:31:03;7.47;;;4.80;;
2848;SDS011;59355;52.416;13.412;2023-04-25T02:33:28;9.37;;;5.87;;
2848;SDS011;59355;52.416;13.412;2023-04-25T02:35:54;6.00;;;5.40;;
2848;SDS011;59355;52.416;13.412;2023-04-25T02:38:19;7.17;;;5.10;;
2848;SDS011;59355;52.416;13.412;2023-04-25T02:40:45;7.30;;;5.03;;
2848;SDS011;59355;52.416;13.412;2023-04-25T02:43:10;7.50;;;4.97;;
2848;SDS011;59355;52.416;13.412;2023-04-25T02:45:35;6.70;;;5.30;;
2848;SDS011;59355;52.416;13.412;2023-04-25T02:48:01;7.10;;;5.50;;
2848;SDS011;59355;52.416;13.412;2023-04-25T02:50:27;6.60;;;6.00;;
2848;SDS011;59355;52.416;13.412;2023-04-25T02:52:52;8.63;;;5.33;;
2848;SDS011;59355;52.416;13.412;2023-04-25T02:55:18;7.90;;;5.37;;
2848;SDS011;59355;52.416;13.412;2023-04-25T02:57:43;10.33;;;5.53;;
2848;SDS011;59355;52.416;13.412;2023-04-25T03:00:09;8.20;;;5.53;;
2848;SDS011;59355;52.416;13.412;2023-04-25T03:02:36;9.43;;;5.50;;
2848;SDS011;59355;52.416;13.412;2023-04-25T03:05:01;7.67;;;5.57;;
2848;SDS011;59355;52.416;13.412;2023-04-25T03:07:28;8.50;;;5.00;;
2848;SDS011;59355;52.416;13.412;2023-04-25T03:09:53;7.60;;;4.93;;
2848;SDS011;59355;52.416;13.412;2023-04-25T03:12:18;6.47;;;5.87;;
2848;SDS011;59355;52.416;13.412;2023-04-25T03:14:44;7.53;;;5.53;;
2848;SDS011;59355;52.416;13.412;2023-04-25T03:17:09;8.60;;;5.53;;
2848;SDS011;59355;52.416;13.412;2023-04-25T03:19:35;7.67;;;5.83;;
2848;SDS011;59355;52.416;13.412;2023-04-25T03:22:00;9.40;;;5.10;;
2848;SDS011;59355;52.416;13.412;2023-04-25T03:24:25;7.17;;;5.43;;
2848;SDS011;59355;52.416;13.412;2023-04-25T03:26:52;11.40;;;5.80;;
2848;SDS011;59355;52.416;13.412;2023-04-25T03:29:17;7.70;;;5.20;;
2848;SDS011;59355;52.416;13.412;2023-04-25T03:31:42;9.90;;;5.10;;
2848;SDS011;59355;52.416;13.412;2023-04-25T03:34:07;9.43;;;5.27;;
2848;SDS011;59355;52.416;13.412;2023-04-25T03:36:33;7.13;;;5.73;;
2848;SDS011;59355;52.416;13.412;2023-04-25T03:38:58;13.77;;;5.83;;
2848;SDS011;59355;52.416;13.412;2023-04-25T03:41:24;7.00;;;5.60;;
2848;SDS011;59355;52.416;13.412;2023-04-25T03:43:49;11.53;;;5.10;;
2848;SDS011;59355;52.416;13.412;2023-04-25T03:46:15;10.30;;;6.30;;
2848;SDS011;59355;52.416;13.412;2023-04-25T03:48:40;8.50;;;5.93;;
2848;SDS011;59355;52.416;13.412;2023-04-25T03:51:05;11.47;;;6.40;;
2848;SDS011;59355;52.416;13.412;2023-04-25T03:53:31;7.47;;;5.20;;
2848;SDS011;59355;52.416;13.412;2023-04-25T03:55:56;6.60;;;6.00;;
2848;SDS011;59355;52.416;13.412;2023-04-25T03:58:21;7.93;;;5.77;;
2848;SDS011;59355;52.416;13.412;2023-04-25T04:00:48;11.90;;;5.20;;
2848;SDS011;59355;52.416;13.412;2023-04-25T04:03:13;8.43;;;6.93;;
2848;SDS011;59355;52.416;13.412;2023-04-25T04:05:39;9.07;;;5.83;;
2848;SDS011;59355;52.416;13.412;2023-04-25T04:08:05;7.97;;;6.10;;
2848;SDS011;59355;52.416;13.412;2023-04-25T04:10:30;7.20;;;5.80;;
2848;SDS011;59355;52.416;13.412;2023-04-25T04:12:56;9.43;;;6.30;;
2848;SDS011;59355;52.416;13.412;2023-04-25T04:15:21;7.30;;;6.03;;
2848;SDS011;59355;52.416;13.412;2023-04-25T04:17:47;7.60;;;6.17;;
2848;SDS011;59355;52.416;13.412;2023-04-25T04:20:13;7.90;;;5.60;;
2848;SDS011;59355;52.416;13.412;2023-04-25T04:22:38;6.50;;;5.37;;
2848;SDS011;59355;52.416;13.412;2023-04-25T04:25:04;6.87;;;5.90;;
2848;SDS011;59355;52.416;13.412;2023-04-25T04:27:30;13.43;;;5.93;;
2848;SDS011;59355;52.416;13.412;2023-04-25T04:29:56;10.30;;;7.07;;
2848;SDS011;59355;52.416;13.412;2023-04-25T04:32:22;7.43;;;6.47;;
2848;SDS011;59355;52.416;13.412;2023-04-25T04:34:48;6.60;;;5.50;;
2848;SDS011;59355;52.416;13.412;2023-04-25T04:37:13;7.00;;;6.30;;
2848;SDS011;59355;52.416;13.412;2023-04-25T04:39:39;7.00;;;5.77;;
2848;SDS011;59355;52.416;13.412;2023-04-25T04:42:05;7.90;;;6.50;;
2848;SDS011;59355;52.416;13.412;2023-04-25T04:44:30;8.30;;;5.87;;
2848;SDS011;59355;52.416;13.412;2023-04-25T04:47:00;7.97;;;6.10;;
2848;SDS011;59355;52.416;13.412;2023-04-25T04:49:25;10.53;;;5.97;;
2848;SDS011;59355;52.416;13.412;2023-04-25T04:51:51;10.73;;;6.67;;
2848;SDS011;59355;52.416;13.412;2023-04-25T04:54:17;9.67;;;6.50;;
2848;SDS011;59355;52.416;13.412;2023-04-25T04:56:42;7.53;;;6.60;;
2848;SDS011;59355;52.416;13.412;2023-04-25T04:59:08;7.70;;;5.70;;
2848;SDS011;59355;52.416;13.412;2023-04-25T05:01:33;7.50;;;6.27;;
2848;SDS011;59355;52.416;13.412;2023-04-25T05:04:02;8.43;;;5.67;;
2848;SDS011;59355;52.416;13.412;2023-04-25T05:06:28;12.00;;;6.77;;
2848;SDS011;59355;52.416;13.412;2023-04-25T05:08:56;9.27;;;6.23;;
2848;SDS011;59355;52.416;13.412;2023-04-25T05:11:22;7.10;;;5.90;;
2848;SDS011;59355;52.416;13.412;2023-04-25T05:13:48;7.20;;;5.93;;
2848;SDS011;59355;52.416;13.412;2023-04-25T05:16:14;7.23;;;6.43;;
2848;SDS011;59355;52.416;13.412;2023-04-25T05:18:39;8.83;;;6.07;;
2848;SDS011;59355;52.416;13.412;2023-04-25T05:21:05;10.70;;;6.40;;
2848;SDS011;59355;52.416;13.412;2023-04-25T05:23:30;7.73;;;6.20;;
2848;SDS011;59355;52.416;13.412;2023-04-25T05:25:57;7.83;;;5.67;;
2848;SDS011;59355;52.416;13.412;2023-04-25T05:28:22;7.03;;;6.33;;
2848;SDS011;59355;52.416;13.412;2023-04-25T05:30:48;11.93;;;5.97;;
2848;SDS011;59355;52.416;13.412;2023-04-25T05:33:13;10.33;;;6.13;;
2848;SDS011;59355;52.416;13.412;2023-04-25T05:35:38;6.20;;;5.50;;
2848;SDS011;59355;52.416;13.412;2023-04-25T05:38:04;11.97;;;7.67;;
2848;SDS011;59355;52.416;13.412;2023-04-25T05:40:29;12.27;;;7.07;;
2848;SDS011;59355;52.416;13.412;2023-04-25T05:42:54;8.13;;;6.50;;
2848;SDS011;59355;52.416;13.412;2023-04-25T05:45:20;12.23;;;6.63;;
2848;SDS011;59355;52.416;13.412;2023-04-25T05:47:45;9.80;;;7.03;;
2848;SDS011;59355;52.416;13.412;2023-04-25T05:50:10;9.00;;;6.93;;
2848;SDS011;59355;52.416;13.412;2023-04-25T05:52:36;8.27;;;7.27;;
2848;SDS011;59355;52.416;13.412;2023-04-25T05:55:01;8.40;;;7.00;;
2848;SDS011;59355;52.416;13.412;2023-04-25T05:57:26;7.57;;;6.53;;
2848;SDS011;59355;52.416;13.412;2023-04-25T05:59:52;8.27;;;6.53;;
2848;SDS011;59355;52.416;13.412;2023-04-25T06:02:18;9.00;;;7.17;;
2848;SDS011;59355;52.416;13.412;2023-04-25T06:04:45;7.77;;;6.70;;
2848;SDS011;59355;52.416;13.412;2023-04-25T06:07:10;11.77;;;6.63;;
2848;SDS011;59355;52.416;13.412;2023-04-25T06:09:35;11.00;;;6.77;;
2848;SDS011;59355;52.416;13.412;2023-04-25T06:12:01;10.20;;;6.50;;
2848;SDS011;59355;52.416;13.412;2023-04-25T06:14:26;13.30;;;6.70;;
2848;SDS011;59355;52.416;13.412;2023-04-25T06:16:52;11.80;;;6.93;;
2848;SDS011;59355;52.416;13.412;2023-04-25T06:19:17;9.07;;;7.37;;
2848;SDS011;59355;52.416;13.412;2023-04-25T06:21:43;9.10;;;7.10;;
2848;SDS011;59355;52.416;13.412;2023-04-25T06:24:08;11.50;;;7.90;;
2848;SDS011;59355;52.416;13.412;2023-04-25T06:26:34;13.23;;;7.40;;
2848;SDS011;59355;52.416;13.412;2023-04-25T06:28:59;9.00;;;6.40;;
2848;SDS011;59355;52.416;13.412;2023-04-25T06:31:25;9.40;;;7.57;;
2848;SDS011;59355;52.416;13.412;2023-04-25T06:33:50;9.00;;;6.37;;
2848;SDS011;59355;52.416;13.412;2023-04-25T06:36:19;11.20;;;8.00;;
2848;SDS011;59355;52.416;13.412;2023-04-25T06:38:49;12.30;;;6.83;;
2848;SDS011;59355;52.416;13.412;2023-04-25T06:41:15;11.17;;;8.20;;
2848;SDS011;59355;52.416;13.412;2023-04-25T06:43:40;12.27;;;6.97;;
2848;SDS011;59355;52.416;13.412;2023-04-25T06:46:05;12.40;;;7.53;;
2848;SDS011;59355;52.416;13.412;2023-04-25T06:48:30;10.20;;;6.97;;
2848;SDS011;59355;52.416;13.412;2023-04-25T06:50:56;10.13;;;7.97;;
2848;SDS011;59355;52.416;13.412;2023-04-25T06:53:21;7.73;;;7.03;;
2848;SDS011;59355;52.416;13.412;2023-04-25T06:55:46;12.13;;;7.13;;
2848;SDS011;59355;52.416;13.412;2023-04-25T06:58:12;9.30;;;7.67;;
2848;SDS011;59355;52.416;13.412;2023-04-25T07:00:37;10.73;;;7.13;;
2848;SDS011;59355;52.416;13.412;2023-04-25T07:03:02;10.47;;;6.60;;
2848;SDS011;59355;52.416;13.412;2023-04-25T07:05:28;12.27;;;6.30;;
2848;SDS011;59355;52.416;13.412;2023-04-25T07:07:53;10.33;;;6.90;;
2848;SDS011;59355;52.416;13.412;2023-04-25T07:10:19;17.70;;;7.70;;
2848;SDS011;59355;52.416;13.412;2023-04-25T07:12:44;9.30;;;6.40;;
2848;SDS011;59355;52.416;13.412;2023-04-25T07:15:09;8.17;;;6.57;;
2848;SDS011;59355;52.416;13.412;2023-04-25T07:17:36;8.97;;;7.17;;
2848;SDS011;59355;52.416;13.412;2023-04-25T07:20:01;9.50;;;5.53;;
2848;SDS011;59355;52.416;13.412;2023-04-25T07:22:28;8.60;;;6.50;;
2848;SDS011;59355;52.416;13.412;2023-04-25T07:24:53;13.10;;;5.77;;
2848;SDS011;59355;52.416;13.412;2023-04-25T07:27:19;8.13;;;6.13;;
2848;SDS011;59355;52.416;13.412;2023-04-25T07:29:44;9.43;;;6.10;;
2848;SDS011;59355;52.416;13.412;2023-04-25T07:32:09;11.10;;;5.50;;
2848;SDS011;59355;52.416;13.412;2023-04-25T07:34:37;7.00;;;6.30;;
2848;SDS011;59355;52.416;13.412;2023-04-25T07:37:03;7.87;;;5.57;;
2848;SDS011;59355;52.416;13.412;2023-04-25T07:39:29;13.13;;;7.30;;
2848;SDS011;59355;52.416;13.412;2023-04-25T07:41:54;7.70;;;5.93;;
2848;SDS011;59355;52.416;13.412;2023-04-25T07:44:19;9.70;;;6.30;;
2848;SDS011;59355;52.416;13.412;2023-04-25T07:46:45;9.03;;;6.30;;
2848;SDS011;59355;52.416;13.412;2023-04-25T07:49:10;9.60;;;6.27;;
2848;SDS011;59355;52.416;13.412;2023-04-25T07:51:35;15.60;;;6.93;;
2848;SDS011;59355;52.416;13.412;2023-04-25T07:54:01;10.97;;;5.90;;
2848;SDS011;59355;52.416;13.412;2023-04-25T07:56:26;8.50;;;6.37;;
2848;SDS011;59355;52.416;13.412;2023-04-25T07:58:52;9.70;;;6.03;;
2848;SDS011;59355;52.416;13.412;2023-04-25T08:01:17;9.97;;;5.93;;
2848;SDS011;59355;52.416;13.412;2023-04-25T08:03:43;8.80;;;5.50;;
2848;SDS011;59355;52.416;13.412;2023-04-25T08:06:09;22.83;;;7.07;;
2848;SDS011;59355;52.416;13.412;2023-04-25T08:08:34;9.47;;;6.53;;
2848;SDS011;59355;52.416;13.412;2023-04-25T08:10:59;8.30;;;7.00;;
2848;SDS011;59355;52.416;13.412;2023-04-25T08:13:25;18.60;;;7.13;;
2848;SDS011;59355;52.416;13.412;2023-04-25T08:15:50;14.00;;;7.17;;
2848;SDS011;59355;52.416;13.412;2023-04-25T08:18:15;12.70;;;5.17;;
2848;SDS011;59355;52.416;13.412;2023-04-25T08:20:41;12.10;;;6.13;;
2848;SDS011;59355;52.416;13.412;2023-04-25T08:23:06;12.33;;;6.30;;
2848;SDS011;59355;52.416;13.412;2023-04-25T08:25:32;15.70;;;5.70;;
2848;SDS011;59355;52.416;13.412;2023-04-25T08:27:57;11.50;;;5.67;;
2848;SDS011;59355;52.416;13.412;2023-04-25T08:30:24;11.50;;;5.50;;
2848;SDS011;59355;52.416;13.412;2023-04-25T08:32:49;15.30;;;6.10;;
2848;SDS011;59355;52.416;13.412;2023-04-25T08:35:15;12.50;;;6.00;;
2848;SDS011;59355;52.416;13.412;2023-04-25T08:37:41;13.73;;;5.57;;
2848;SDS011;59355;52.416;13.412;2023-04-25T08:40:07;14.57;;;6.40;;
2848;SDS011;59355;52.416;13.412;2023-04-25T08:42:36;11.80;;;5.40;;
2848;SDS011;59355;52.416;13.412;2023-04-25T08:45:02;8.23;;;3.97;;
2848;SDS011;59355;52.416;13.412;2023-04-25T08:47:31;10.43;;;4.93;;
2848;SDS011;59355;52.416;13.412;2023-04-25T08:49:58;13.47;;;3.90;;
2848;SDS011;59355;52.416;13.412;2023-04-25T08:52:24;12.87;;;4.73;;
2848;SDS011;59355;52.416;13.412;2023-04-25T08:54:53;13.90;;;4.13;;
2848;SDS011;59355;52.416;13.412;2023-04-25T08:57:19;7.40;;;4.67;;
2848;SDS011;59355;52.416;13.412;2023-04-25T08:59:45;9.60;;;4.17;;
2848;SDS011;59355;52.416;13.412;2023-04-25T09:02:11;11.57;;;3.70;;
2848;SDS011;59355;52.416;13.412;2023-04-25T09:04:41;7.57;;;4.00;;
2848;SDS011;59355;52.416;13.412;2023-04-25T09:07:07;13.13;;;5.17;;
2848;SDS011;59355;52.416;13.412;2023-04-25T09:09:33;13.70;;;4.70;;
2848;SDS011;59355;52.416;13.412;2023-04-25T09:11:58;11.80;;;4.30;;
2848;SDS011;59355;52.416;13.412;2023-04-25T09:14:24;9.30;;;4.40;;
2848;SDS011;59355;52.416;13.412;2023-04-25T09:19:27;9.17;;;4.00;;
2848;SDS011;59355;52.416;13.412;2023-04-25T09:21:54;8.90;;;4.00;;
2848;SDS011;59355;52.416;13.412;2023-04-25T09:24:29;10.80;;;4.30;;
2848;SDS011;59355;52.416;13.412;2023-04-25T09:26:56;9.67;;;5.13;;
2848;SDS011;59355;52.416;13.412;2023-04-25T09:29:28;9.63;;;4.90;;
2848;SDS011;59355;52.416;13.412;2023-04-25T09:32:03;12.70;;;4.90;;
2848;SDS011;59355;52.416;13.412;2023-04-25T09:34:52;12.93;;;4.23;;
2848;SDS011;59355;52.416;13.412;2023-04-25T09:39:53;10.83;;;3.93;;
2848;SDS011;59355;52.416;13.412;2023-04-25T09:42:21;10.20;;;4.80;;
2848;SDS011;59355;52.416;13.412;2023-04-25T09:44:47;10.73;;;4.67;;
2848;SDS011;59355;52.416;13.412;2023-04-25T09:47:13;10.80;;;5.00;;
2848;SDS011;59355;52.416;13.412;2023-04-25T09:49:41;12.97;;;4.87;;
2848;SDS011;59355;52.416;13.412;2023-04-25T09:52:07;8.07;;;3.80;;
2848;SDS011;59355;52.416;13.412;2023-04-25T09:54:33;18.00;;;5.00;;
2848;SDS011;59355;52.416;13.412;2023-04-25T09:57:00;8.87;;;4.30;;
2848;SDS011;59355;52.416;13.412;2023-04-25T09:59:32;12.43;;;4.93;;
2848;SDS011;59355;52.416;13.412;2023-04-25T10:01:58;18.13;;;4.17;;
2848;SDS011;59355;52.416;13.412;2023-04-25T10:04:24;11.90;;;5.13;;
2848;SDS011;59355;52.416;13.412;2023-04-25T10:06:50;10.97;;;5.50;;
2848;SDS011;59355;52.416;13.412;2023-04-25T10:09:19;7.67;;;4.03;;
2848;SDS011;59355;52.416;13.412;2023-04-25T10:11:46;11.70;;;4.13;;
2848;SDS011;59355;52.416;13.412;2023-04-25T10:14:13;7.80;;;3.80;;
2848;SDS011;59355;52.416;13.412;2023-04-25T10:16:38;15.17;;;5.33;;
2848;SDS011;59355;52.416;13.412;2023-04-25T10:19:05;12.70;;;5.37;;
2848;SDS011;59355;52.416;13.412;2023-04-25T10:21:31;8.37;;;4.40;;
2848;SDS011;59355;52.416;13.412;2023-04-25T10:23:56;12.87;;;4.37;;
2848;SDS011;59355;52.416;13.412;2023-04-25T10:26:22;6.87;;;3.90;;
2848;SDS011;59355;52.416;13.412;2023-04-25T10:28:58;13.27;;;3.67;;
2848;SDS011;59355;52.416;13.412;2023-04-25T10:31:24;11.10;;;4.57;;
2848;SDS011;59355;52.416;13.412;2023-04-25T10:33:50;8.80;;;3.50;;
2848;SDS011;59355;52.416;13.412;2023-04-25T10:36:19;6.13;;;3.77;;
2848;SDS011;59355;52.416;13.412;2023-04-25T10:38:47;6.17;;;3.73;;
2848;SDS011;59355;52.416;13.412;2023-04-25T10:41:12;9.73;;;3.90;;
2848;SDS011;59355;52.416;13.412;2023-04-25T10:46:27;8.00;;;4.23;;
2848;SDS011;59355;52.416;13.412;2023-04-25T10:48:58;5.23;;;3.27;;
2848;SDS011;59355;52.416;13.412;2023-04-25T10:51:25;5.40;;;3.53;;
2848;SDS011;59355;52.416;13.412;2023-04-25T10:53:56;9.50;;;4.30;;
2848;SDS011;59355;52.416;13.412;2023-04-25T10:56:22;8.00;;;4.07;;
2848;SDS011;59355;52.416;13.412;2023-04-25T10:58:50;7.50;;;4.07;;
2848;SDS011;59355;52.416;13.412;2023-04-25T11:01:19;8.20;;;3.30;;
2848;SDS011;59355;52.416;13.412;2023-04-25T11:03:45;10.57;;;4.90;;
2848;SDS011;59355;52.416;13.412;2023-04-25T11:09:10;12.10;;;4.10;;
2848;SDS011;59355;52.416;13.412;2023-04-25T11:11:38;16.00;;;4.40;;
2848;SDS011;59355;52.416;13.412;2023-04-25T11:14:06;12.50;;;3.87;;
2848;SDS011;59355;52.416;13.412;2023-04-25T11:16:32;6.57;;;3.70;;
2848;SDS011;59355;52.416;13.412;2023-04-25T11:18:58;5.10;;;3.67;;
2848;SDS011;59355;52.416;13.412;2023-04-25T11:21:26;11.77;;;3.53;;
2848;SDS011;59355;52.416;13.412;2023-04-25T11:23:53;6.77;;;3.47;;
2848;SDS011;59355;52.416;13.412;2023-04-25T11:26:19;10.47;;;4.20;;
2848;SDS011;59355;52.416;13.412;2023-04-25T11:28:45;5.83;;;3.53;;
2848;SDS011;59355;52.416;13.412;2023-04-25T11:31:11;6.20;;;3.63;;
2848;SDS011;59355;52.416;13.412;2023-04-25T11:33:37;8.17;;;3.20;;
2848;SDS011;59355;52.416;13.412;2023-04-25T11:36:02;7.90;;;4.00;;
2848;SDS011;59355;52.416;13.412;2023-04-25T11:38:28;5.93;;;3.63;;
2848;SDS011;59355;52.416;13.412;2023-04-25T11:40:54;10.60;;;3.87;;
2848;SDS011;59355;52.416;13.412;2023-04-25T11:43:20;8.23;;;3.30;;
2848;SDS011;59355;52.416;13.412;2023-04-25T11:45:46;9.80;;;4.67;;
2848;SDS011;59355;52.416;13.412;2023-04-25T11:48:13;7.23;;;3.13;;
2848;SDS011;59355;52.416;13.412;2023-04-25T11:50:39;10.87;;;3.57;;
2848;SDS011;59355;52.416;13.412;2023-04-25T11:53:04;3.93;;;3.03;;
2848;SDS011;59355;52.416;13.412;2023-04-25T11:55:31;4.37;;;3.00;;
2848;SDS011;59355;52.416;13.412;2023-04-25T11:57:56;12.20;;;3.00;;
2848;SDS011;59355;52.416;13.412;2023-04-25T12:00:25;6.30;;;2.73;;
2848;SDS011;59355;52.416;13.412;2023-04-25T12:02:51;12.83;;;4.60;;
2848;SDS011;59355;52.416;13.412;2023-04-25T12:05:17;5.03;;;2.60;;
2848;SDS011;59355;52.416;13.412;2023-04-25T12:07:44;3.93;;;2.90;;
2848;SDS011;59355;52.416;13.412;2023-04-25T12:10:11;7.03;;;2.80;;
2848;SDS011;59355;52.416;13.412;2023-04-25T12:12:37;9.83;;;3.40;;
2848;SDS011;59355;52.416;13.412;2023-04-25T12:15:10;8.77;;;3.43;;
2848;SDS011;59355;52.416;13.412;2023-04-25T12:17:36;5.20;;;3.00;;
2848;SDS011;59355;52.416;13.412;2023-04-25T12:20:05;5.93;;;3.37;;
2848;SDS011;59355;52.416;13.412;2023-04-25T12:22:32;7.43;;;3.20;;
2848;SDS011;59355;52.416;13.412;2023-04-25T12:24:58;4.73;;;3.20;;
2848;SDS011;59355;52.416;13.412;2023-04-25T12:27:23;7.83;;;3.57;;
2848;SDS011;59355;52.416;13.412;2023-04-25T12:29:51;5.43;;;2.80;;
2848;SDS011;59355;52.416;13.412;2023-04-25T12:32:20;7.10;;;2.77;;
2848;SDS011;59355;52.416;13.412;2023-04-25T12:34:47;6.40;;;2.77;;
2848;SDS011;59355;52.416;13.412;2023-04-25T12:37:12;4.70;;;3.53;;
2848;SDS011;59355;52.416;13.412;2023-04-25T12:39:38;7.17;;;3.27;;
2848;SDS011;59355;52.416;13.412;2023-04-25T12:42:04;4.33;;;3.30;;
2848;SDS011;59355;52.416;13.412;2023-04-25T12:44:29;5.60;;;2.93;;
2848;SDS011;59355;52.416;13.412;2023-04-25T12:46:54;5.33;;;2.60;;
2848;SDS011;59355;52.416;13.412;2023-04-25T12:49:20;8.40;;;3.57;;
2848;SDS011;59355;52.416;13.412;2023-04-25T12:51:45;8.73;;;3.43;;
2848;SDS011;59355;52.416;13.412;2023-04-25T12:54:11;5.30;;;3.50;;
2848;SDS011;59355;52.416;13.412;2023-04-25T12:56:37;5.33;;;3.63;;
2848;SDS011;59355;52.416;13.412;2023-04-25T12:59:02;7.20;;;4.67;;
2848;SDS011;59355;52.416;13.412;2023-04-25T13:01:28;7.20;;;3.87;;
2848;SDS011;59355;52.416;13.412;2023-04-25T13:03:53;8.10;;;3.23;;
2848;SDS011;59355;52.416;13.412;2023-04-25T13:06:19;6.63;;;4.30;;
2848;SDS011;59355;52.416;13.412;2023-04-25T13:08:46;7.17;;;3.70;;
2848;SDS011;59355;52.416;13.412;2023-04-25T13:11:12;8.47;;;3.60;;
2848;SDS011;59355;52.416;13.412;2023-04-25T13:13:39;8.40;;;3.33;;
2848;SDS011;59355;52.416;13.412;2023-04-25T13:16:06;6.23;;;3.10;;
2848;SDS011;59355;52.416;13.412;2023-04-25T13:18:32;9.40;;;3.10;;
2848;SDS011;59355;52.416;13.412;2023-04-25T13:20:58;4.33;;;2.67;;
2848;SDS011;59355;52.416;13.412;2023-04-25T13:23:27;5.27;;;2.97;;
2848;SDS011;59355;52.416;13.412;2023-04-25T13:25:53;8.60;;;3.67;;
2848;SDS011;59355;52.416;13.412;2023-04-25T13:28:18;5.07;;;3.40;;
2848;SDS011;59355;52.416;13.412;2023-04-25T13:30:44;7.50;;;3.80;;
2848;SDS011;59355;52.416;13.412;2023-04-25T13:33:09;6.07;;;3.40;;
2848;SDS011;59355;52.416;13.412;2023-04-25T13:35:36;4.57;;;2.73;;
2848;SDS011;59355;52.416;13.412;2023-04-25T13:38:04;3.60;;;2.80;;
2848;SDS011;59355;52.416;13.412;2023-04-25T13:40:29;5.27;;;2.87;;
2848;SDS011;59355;52.416;13.412;2023-04-25T13:42:55;9.33;;;3.60;;
2848;SDS011;59355;52.416;13.412;2023-04-25T13:45:21;5.30;;;3.13;;
2848;SDS011;59355;52.416;13.412;2023-04-25T13:47:46;6.70;;;2.83;;
2848;SDS011;59355;52.416;13.412;2023-04-25T13:50:12;4.67;;;2.80;;
2848;SDS011;59355;52.416;13.412;2023-04-25T13:52:38;4.40;;;3.03;;
2848;SDS011;59355;52.416;13.412;2023-04-25T13:55:04;6.03;;;2.90;;
2848;SDS011;59355;52.416;13.412;2023-04-25T13:57:31;6.57;;;3.63;;
2848;SDS011;59355;52.416;13.412;2023-04-25T13:59:57;6.60;;;3.03;;
2848;SDS011;59355;52.416;13.412;2023-04-25T14:02:22;6.77;;;4.00;;
2848;SDS011;59355;52.416;13.412;2023-04-25T14:04:48;6.33;;;3.70;;
2848;SDS011;59355;52.416;13.412;2023-04-25T14:07:13;6.83;;;3.60;;
2848;SDS011;59355;52.416;13.412;2023-04-25T14:09:41;6.07;;;2.90;;
2848;SDS011;59355;52.416;13.412;2023-04-25T14:12:06;6.67;;;3.37;;
2848;SDS011;59355;52.416;13.412;2023-04-25T14:14:31;4.43;;;2.50;;
2848;SDS011;59355;52.416;13.412;2023-04-25T14:16:57;6.40;;;3.27;;
2848;SDS011;59355;52.416;13.412;2023-04-25T14:19:22;7.40;;;3.67;;
2848;SDS011;59355;52.416;13.412;2023-04-25T14:21:48;10.47;;;4.23;;
2848;SDS011;59355;52.416;13.412;2023-04-25T14:24:13;6.93;;;3.33;;
2848;SDS011;59355;52.416;13.412;2023-04-25T14:26:39;4.83;;;2.83;;
2848;SDS011;59355;52.416;13.412;2023-04-25T14:29:05;3.50;;;2.70;;
2848;SDS011;59355;52.416;13.412;2023-04-25T14:31:32;5.53;;;3.13;;
2848;SDS011;59355;52.416;13.412;2023-04-25T14:33:57;5.40;;;2.73;;
2848;SDS011;59355;52.416;13.412;2023-04-25T14:36:23;4.83;;;2.83;;
2848;SDS011;59355;52.416;13.412;2023-04-25T14:38:48;4.97;;;2.83;;
2848;SDS011;59355;52.416;13.412;2023-04-25T14:41:13;9.50;;;3.70;;
2848;SDS011;59355;52.416;13.412;2023-04-25T14:43:38;6.10;;;3.70;;
2848;SDS011;59355;52.416;13.412;2023-04-25T14:46:07;8.60;;;3.00;;